createdAt,value
2022-09-14T00:00:03.551Z,0.95
2022-09-14T00:01:27.332Z,1.39
2022-09-14T00:02:05.311Z,0.85
2022-09-14T00:03:05.769Z,1.39
2022-09-14T00:04:05.498Z,0.86
2022-09-14T00:05:05.296Z,1.74
2022-09-14T00:06:05.031Z,1.14
2022-09-14T00:07:05.112Z,1.18
2022-09-14T00:08:04.442Z,0.76
2022-09-14T00:09:04.874Z,1.31
2022-09-14T00:10:05.980Z,0.81
2022-09-14T00:11:04.866Z,1.58
2022-09-14T00:12:04.625Z,1.09
2022-09-14T00:13:05.196Z,1.02
2022-09-14T00:14:05.083Z,1.49
2022-09-14T00:15:05.716Z,1.39
2022-09-14T00:16:04.310Z,0.89
2022-09-14T00:17:05.336Z,1.35
2022-09-14T00:18:04.829Z,1.04
2022-09-14T00:19:04.613Z,1.03
2022-09-14T00:20:05.347Z,1.01
2022-09-14T00:21:04.178Z,0.7
2022-09-14T00:22:05.217Z,0.88
2022-09-14T00:23:05.354Z,0.81
2022-09-14T00:24:04.819Z,0.96
2022-09-14T00:25:05.717Z,0.79
2022-09-14T00:26:04.729Z,0.94
2022-09-14T00:27:05.495Z,0.9
2022-09-14T00:28:04.979Z,1.15
2022-09-14T00:29:05.178Z,1.16
2022-09-14T00:30:04.768Z,1.58
2022-09-14T00:31:05.223Z,1.21
2022-09-14T00:32:05.369Z,0.94
2022-09-14T00:33:04.487Z,2.11
2022-09-14T00:34:05.078Z,1.51
2022-09-14T00:35:05.027Z,1.37
2022-09-14T00:36:05.029Z,1.62
2022-09-14T00:37:05.386Z,1.31
2022-09-14T00:38:05.235Z,1.45
2022-09-14T00:39:05.482Z,1.05
2022-09-14T00:40:05.132Z,1.29
2022-09-14T00:41:05.571Z,1.06
2022-09-14T00:42:04.428Z,1.11
2022-09-14T00:43:04.636Z,0.96
2022-09-14T00:44:05.228Z,1.29
2022-09-14T00:45:05.435Z,1.49
2022-09-14T00:46:05.014Z,1.45
2022-09-14T00:47:05.363Z,1.45
2022-09-14T00:48:04.750Z,1.61
2022-09-14T00:49:05.309Z,1.26
2022-09-14T00:50:30.416Z,1.26
2022-09-14T00:51:04.813Z,1.41
2022-09-14T00:52:05.523Z,1.41
2022-09-14T00:53:04.843Z,1.09
2022-09-14T00:54:04.942Z,1.25
2022-09-14T00:55:05.141Z,1.28
2022-09-14T00:56:05.696Z,1.52
2022-09-14T00:57:04.833Z,1.52
2022-09-14T00:58:04.779Z,1.47
2022-09-14T00:59:04.644Z,1.45
2022-09-14T01:00:04.997Z,0.92
2022-09-14T01:01:04.938Z,1.31
2022-09-14T01:02:04.990Z,1.45
2022-09-14T01:03:04.701Z,1.04
2022-09-14T01:04:04.745Z,0.85
2022-09-14T01:05:05.115Z,1.45
2022-09-14T01:06:05.022Z,1.15
2022-09-14T01:07:05.726Z,1.24
2022-09-14T01:08:04.738Z,1.54
2022-09-14T01:09:05.047Z,1.41
2022-09-14T01:10:04.838Z,1.46
2022-09-14T01:11:04.303Z,1.75
2022-09-14T01:12:05.864Z,1.27
2022-09-14T01:13:05.314Z,0.94
2022-09-14T01:14:04.857Z,1.74
2022-09-14T01:15:04.799Z,1.14
2022-09-14T01:16:04.549Z,1.74
2022-09-14T01:17:05.064Z,1.07
2022-09-14T01:18:04.890Z,1.45
2022-09-14T01:19:04.478Z,1.42
2022-09-14T01:20:04.742Z,1.95
2022-09-14T01:21:05.245Z,1.7
2022-09-14T01:22:04.558Z,1.66
2022-09-14T01:23:04.454Z,1.12
2022-09-14T01:24:05.056Z,1.49
2022-09-14T01:25:04.699Z,1.36
2022-09-14T01:26:04.999Z,1.85
2022-09-14T01:27:04.644Z,1.04
2022-09-14T01:28:05.267Z,1.39
2022-09-14T01:29:04.556Z,0.85
2022-09-14T01:30:05.218Z,1.7
2022-09-14T01:31:10.156Z,1.38
2022-09-14T01:32:04.694Z,1.43
2022-09-14T01:33:03.990Z,1.59
2022-09-14T01:34:04.719Z,1.64
2022-09-14T01:35:04.939Z,1.61
2022-09-14T01:36:05.061Z,1.05
2022-09-14T01:37:04.437Z,1.59
2022-09-14T01:38:04.934Z,1.42
2022-09-14T01:39:04.448Z,0.94
2022-09-14T01:40:04.928Z,1.62
2022-09-14T01:41:05.237Z,1.29
2022-09-14T01:42:05.225Z,1.06
2022-09-14T01:43:05.114Z,1.58
2022-09-14T01:44:04.809Z,1.49
2022-09-14T01:45:05.443Z,1.37
2022-09-14T01:46:04.623Z,1.54
2022-09-14T01:47:04.988Z,1.36
2022-09-14T01:48:04.567Z,2.09
2022-09-14T01:49:04.718Z,1.22
2022-09-14T01:50:05.347Z,0.89
2022-09-14T01:51:05.165Z,1.39
2022-09-14T01:52:04.970Z,2.01
2022-09-14T01:53:05.659Z,2.12
2022-09-14T01:54:05.024Z,1.44
2022-09-14T01:55:04.452Z,1.85
2022-09-14T01:56:05.124Z,1.52
2022-09-14T01:57:03.399Z,1.01
2022-09-14T01:58:04.320Z,1.44
2022-09-14T01:59:04.763Z,1.16
2022-09-14T02:00:05.478Z,1.17
2022-09-14T02:01:05.146Z,1.44
2022-09-14T02:02:04.566Z,0.81
2022-09-14T02:03:05.101Z,0.81
2022-09-14T02:04:05.108Z,1.05
2022-09-14T02:05:04.669Z,1.05
2022-09-14T02:06:04.915Z,1.47
2022-09-14T02:07:04.938Z,1.47
2022-09-14T02:08:04.808Z,1.82
2022-09-14T02:09:05.173Z,1.16
2022-09-14T02:10:05.031Z,1.16
2022-09-14T02:11:05.422Z,1.62
2022-09-14T02:12:04.813Z,1.12
2022-09-14T02:13:05.269Z,1.68
2022-09-14T02:14:04.564Z,1.24
2022-09-14T02:15:04.913Z,1.09
2022-09-14T02:16:06.460Z,1.41
2022-09-14T02:17:04.807Z,1.44
2022-09-14T02:18:03.955Z,1.26
2022-09-14T02:19:04.042Z,1.68
2022-09-14T02:20:05.388Z,1.87
2022-09-14T02:21:04.974Z,1.92
2022-09-14T02:22:04.958Z,1.55
2022-09-14T02:23:04.404Z,1.45
2022-09-14T02:24:05.289Z,1.47
2022-09-14T02:25:05.049Z,1.32
2022-09-14T02:26:05.148Z,1.86
2022-09-14T02:27:04.474Z,1.59
2022-09-14T02:28:05.127Z,1.36
2022-09-14T02:29:05.576Z,2.33
2022-09-14T02:30:05.418Z,1.41
2022-09-14T02:31:05.114Z,2
2022-09-14T02:32:04.423Z,1.42
2022-09-14T02:33:04.778Z,1.99
2022-09-14T02:34:04.934Z,1.27
2022-09-14T02:35:04.966Z,1.33
2022-09-14T02:36:05.097Z,1.9
2022-09-14T02:37:04.338Z,1.45
2022-09-14T02:38:05.117Z,1.41
2022-09-14T02:39:05.140Z,1.64
2022-09-14T02:40:05.361Z,1.82
2022-09-14T02:41:05.172Z,1.54
2022-09-14T02:42:04.827Z,1.63
2022-09-14T02:43:05.102Z,1.75
2022-09-14T02:44:05.332Z,1.15
2022-09-14T02:45:05.243Z,1.21
2022-09-14T02:46:04.515Z,1.05
2022-09-14T02:47:04.940Z,1.54
2022-09-14T02:48:04.665Z,2.24
2022-09-14T02:49:04.845Z,1
2022-09-14T02:50:05.796Z,1.56
2022-09-14T02:51:05.098Z,1.51
2022-09-14T02:52:06.308Z,1.12
2022-09-14T02:53:04.936Z,0.99
2022-09-14T02:54:05.585Z,0.88
2022-09-14T02:55:04.933Z,1.67
2022-09-14T02:56:06.324Z,1.12
2022-09-14T02:57:04.375Z,1.12
2022-09-14T02:58:04.915Z,1.24
2022-09-14T02:59:04.579Z,1.68
2022-09-14T03:00:05.754Z,1.61
2022-09-14T03:01:04.682Z,1.91
2022-09-14T03:02:05.388Z,1.55
2022-09-14T03:03:04.874Z,1.38
2022-09-14T03:04:05.275Z,1.23
2022-09-14T03:05:05.068Z,1.05
2022-09-14T03:06:04.944Z,1.54
2022-09-14T03:07:05.414Z,0.9
2022-09-14T03:08:05.639Z,1.19
2022-09-14T03:09:05.084Z,1.01
2022-09-14T03:10:05.618Z,1.23
2022-09-14T03:11:05.091Z,1.08
2022-09-14T03:12:04.756Z,1.61
2022-09-14T03:13:05.184Z,1.38
2022-09-14T03:14:04.536Z,1.68
2022-09-14T03:15:04.994Z,1.29
2022-09-14T03:16:04.967Z,1.28
2022-09-14T03:17:05.442Z,1.28
2022-09-14T03:18:04.555Z,1.62
2022-09-14T03:19:05.256Z,1.62
2022-09-14T03:20:05.233Z,1.8
2022-09-14T03:21:04.569Z,1.55
2022-09-14T03:22:05.134Z,1.4
2022-09-14T03:23:05.089Z,1.36
2022-09-14T03:24:05.664Z,1.46
2022-09-14T03:25:04.791Z,1.19
2022-09-14T03:26:04.598Z,1.09
2022-09-14T03:27:04.440Z,1.26
2022-09-14T03:28:05.246Z,1.95
2022-09-14T03:29:05.175Z,1.93
2022-09-14T03:30:04.881Z,2.09
2022-09-14T03:31:05.263Z,1.76
2022-09-14T03:32:04.257Z,1.82
2022-09-14T03:33:05.211Z,1.54
2022-09-14T03:34:04.831Z,1.57
2022-09-14T03:35:05.130Z,1.68
2022-09-14T03:36:05.726Z,1.6
2022-09-14T03:37:04.259Z,1.45
2022-09-14T03:38:05.705Z,1.72
2022-09-14T03:39:04.731Z,1.17
2022-09-14T03:40:05.228Z,1.95
2022-09-14T03:41:04.568Z,1
2022-09-14T03:42:05.392Z,2.28
2022-09-14T03:43:04.684Z,1.42
2022-09-14T03:44:05.188Z,1.96
2022-09-14T03:45:04.898Z,1.51
2022-09-14T03:46:05.085Z,1.86
2022-09-14T03:47:04.638Z,1.56
2022-09-14T03:48:05.357Z,1.22
2022-09-14T03:49:04.855Z,1.48
2022-09-14T03:50:05.027Z,1.49
2022-09-14T03:51:04.930Z,1.77
2022-09-14T03:52:10.646Z,1.44
2022-09-14T03:53:04.667Z,1.88
2022-09-14T03:54:04.758Z,1.45
2022-09-14T03:55:05.309Z,1.16
2022-09-14T03:56:05.269Z,0.98
2022-09-14T03:57:04.216Z,0.95
2022-09-14T03:58:04.939Z,2.15
2022-09-14T03:59:04.990Z,1.49
2022-09-14T04:00:05.698Z,1.33
2022-09-14T04:01:04.504Z,1.33
2022-09-14T04:02:05.049Z,1.18
2022-09-14T04:03:05.564Z,1.26
2022-09-14T04:04:05.217Z,1.78
2022-09-14T04:05:04.932Z,1.52
2022-09-14T04:06:05.517Z,1.49
2022-09-14T04:07:04.361Z,1.52
2022-09-14T04:08:05.063Z,1.96
2022-09-14T04:09:04.960Z,2.39
2022-09-14T04:10:05.741Z,1.46
2022-09-14T04:11:04.772Z,1.47
2022-09-14T04:12:04.563Z,1.89
2022-09-14T04:13:05.538Z,1.77
2022-09-14T04:14:05.302Z,1.61
2022-09-14T04:15:04.951Z,2.05
2022-09-14T04:16:05.154Z,2.09
2022-09-14T04:17:05.281Z,2.09
2022-09-14T04:18:05.364Z,1.85
2022-09-14T04:19:05.237Z,2.35
2022-09-14T04:20:05.055Z,2.35
2022-09-14T04:21:10.032Z,1.54
2022-09-14T04:22:04.712Z,1.56
2022-09-14T04:23:04.645Z,1.56
2022-09-14T04:24:17.452Z,2.24
2022-09-14T04:25:04.890Z,2.36
2022-09-14T04:26:05.029Z,1.83
2022-09-14T04:27:05.257Z,2.66
2022-09-14T04:28:22.639Z,1.81
2022-09-14T04:29:04.967Z,1.74
2022-09-14T04:30:05.474Z,1.51
2022-09-14T04:31:04.745Z,2.28
2022-09-14T04:32:05.151Z,1.86
2022-09-14T04:33:04.569Z,2
2022-09-14T04:34:05.228Z,1.89
2022-09-14T04:35:04.581Z,2.99
2022-09-14T04:36:05.383Z,1.9
2022-09-14T04:37:04.727Z,1.72
2022-09-14T04:38:05.591Z,2.46
2022-09-14T04:39:05.071Z,1.6
2022-09-14T04:40:06.180Z,1.47
2022-09-14T04:41:05.257Z,1.81
2022-09-14T04:42:05.220Z,1.59
2022-09-14T04:43:04.309Z,1.44
2022-09-14T04:44:05.460Z,1.52
2022-09-14T04:45:05.508Z,2.31
2022-09-14T04:46:05.572Z,2.19
2022-09-14T04:47:04.549Z,1.4
2022-09-14T04:48:05.210Z,2.13
2022-09-14T04:49:04.424Z,2.64
2022-09-14T04:50:05.802Z,1.73
2022-09-14T04:51:04.540Z,1.62
2022-09-14T04:52:05.110Z,2.88
2022-09-14T04:53:04.762Z,1.92
2022-09-14T04:54:04.928Z,1.38
2022-09-14T04:55:04.837Z,2.51
2022-09-14T04:56:04.855Z,1.39
2022-09-14T04:57:05.006Z,1.71
2022-09-14T04:58:04.455Z,2.11
2022-09-14T04:59:05.110Z,1.64
2022-09-14T05:00:05.279Z,2.08
2022-09-14T05:01:05.327Z,2.14
2022-09-14T05:02:04.981Z,2.14
2022-09-14T05:03:05.134Z,2.18
2022-09-14T05:04:04.000Z,2.17
2022-09-14T05:05:05.154Z,1.78
2022-09-14T05:06:05.258Z,1.46
2022-09-14T05:07:04.444Z,1.93
2022-09-14T05:08:05.243Z,2.13
2022-09-14T05:09:05.022Z,1.23
2022-09-14T05:10:04.779Z,2.53
2022-09-14T05:11:04.797Z,1.85
2022-09-14T05:12:05.268Z,1.14
2022-09-14T05:13:04.702Z,1.96
2022-09-14T05:14:05.393Z,1.64
2022-09-14T05:15:04.857Z,1.75
2022-09-14T05:16:05.254Z,2.14
2022-09-14T05:17:04.687Z,2.68
2022-09-14T05:18:04.924Z,2.41
2022-09-14T05:19:04.761Z,2.27
2022-09-14T05:20:04.723Z,1.92
2022-09-14T05:21:10.347Z,1.64
2022-09-14T05:22:04.236Z,1.24
2022-09-14T05:23:05.325Z,1.5
2022-09-14T05:24:04.434Z,1.38
2022-09-14T05:25:05.481Z,1.44
2022-09-14T05:26:04.530Z,1.63
2022-09-14T05:27:04.748Z,1.97
2022-09-14T05:28:04.677Z,2.11
2022-09-14T05:29:05.464Z,2.18
2022-09-14T05:30:05.056Z,1.14
2022-09-14T05:31:05.871Z,1.47
2022-09-14T05:32:04.896Z,1.77
2022-09-14T05:33:04.670Z,1.77
2022-09-14T05:34:04.923Z,1.69
2022-09-14T05:35:05.058Z,1.69
2022-09-14T05:36:04.680Z,2.38
2022-09-14T05:37:04.272Z,1.21
2022-09-14T05:38:05.204Z,1.71
2022-09-14T05:39:04.981Z,1.67
2022-09-14T05:40:05.777Z,1.58
2022-09-14T05:41:05.478Z,1.4
2022-09-14T05:42:05.287Z,1.45
2022-09-14T05:43:04.679Z,1.74
2022-09-14T05:44:04.398Z,1.57
2022-09-14T05:45:05.119Z,1.69
2022-09-14T05:46:05.282Z,1.34
2022-09-14T05:47:04.323Z,2.21
2022-09-14T05:48:03.580Z,1.92
2022-09-14T05:49:04.287Z,1.22
2022-09-14T05:50:04.880Z,1.53
2022-09-14T05:51:05.125Z,1.91
2022-09-14T05:52:05.294Z,1.88
2022-09-14T05:53:05.302Z,1.61
2022-09-14T05:54:04.936Z,1.41
2022-09-14T05:55:04.776Z,1.44
2022-09-14T05:56:04.925Z,1.62
2022-09-14T05:57:05.295Z,1.96
2022-09-14T05:58:05.624Z,1.44
2022-09-14T05:59:05.333Z,1.32
2022-09-14T06:00:04.675Z,2.06
2022-09-14T06:01:04.967Z,1.52
2022-09-14T06:02:04.798Z,1.38
2022-09-14T06:03:04.948Z,1.46
2022-09-14T06:04:05.509Z,1.41
2022-09-14T06:05:05.122Z,1.85
2022-09-14T06:06:05.321Z,1.96
2022-09-14T06:07:20.039Z,2.2
2022-09-14T06:08:05.578Z,1.85
2022-09-14T06:09:05.126Z,1.78
2022-09-14T06:10:05.358Z,2.33
2022-09-14T06:11:04.752Z,1.81
2022-09-14T06:12:04.930Z,2.34
2022-09-14T06:13:04.627Z,2.11
2022-09-14T06:14:05.273Z,1.89
2022-09-14T06:15:05.380Z,2.34
2022-09-14T06:16:04.700Z,1.22
2022-09-14T06:17:05.301Z,1.42
2022-09-14T06:18:05.036Z,2.27
2022-09-14T06:19:05.215Z,1.77
2022-09-14T06:20:07.043Z,1.86
2022-09-14T06:21:05.582Z,1.26
2022-09-14T06:22:04.434Z,1.88
2022-09-14T06:23:05.410Z,1.6
2022-09-14T06:24:04.701Z,1.97
2022-09-14T06:25:05.669Z,2.11
2022-09-14T06:26:04.585Z,1.2
2022-09-14T06:27:04.726Z,1.73
2022-09-14T06:28:05.301Z,3.09
2022-09-14T06:29:04.842Z,1.75
2022-09-14T06:30:05.003Z,1.3
2022-09-14T06:31:05.050Z,1.49
2022-09-14T06:32:04.703Z,1.28
2022-09-14T06:33:05.654Z,1.34
2022-09-14T06:34:04.752Z,1.26
2022-09-14T06:35:08.202Z,1.46
2022-09-14T06:36:05.375Z,1.11
2022-09-14T06:37:05.585Z,1.25
2022-09-14T06:38:04.946Z,1.41
2022-09-14T06:39:04.790Z,1.46
2022-09-14T06:40:05.375Z,1.66
2022-09-14T06:41:04.281Z,1.91
2022-09-14T06:42:05.146Z,1.91
2022-09-14T06:43:05.138Z,1.46
2022-09-14T06:44:04.897Z,1.63
2022-09-14T06:45:04.698Z,1.63
2022-09-14T06:46:05.149Z,1.53
2022-09-14T06:47:05.295Z,1.53
2022-09-14T06:48:04.832Z,2.18
2022-09-14T06:49:05.389Z,1.77
2022-09-14T06:50:04.656Z,1.82
2022-09-14T06:51:05.405Z,1.74
2022-09-14T06:52:04.443Z,1.35
2022-09-14T06:53:05.098Z,1.44
2022-09-14T06:54:05.309Z,1.44
2022-09-14T06:55:05.041Z,1.36
2022-09-14T06:56:04.444Z,1.29
2022-09-14T06:57:04.736Z,1.83
2022-09-14T06:58:04.784Z,1.86
2022-09-14T06:59:05.049Z,1.58
2022-09-14T07:00:05.003Z,1.62
2022-09-14T07:01:04.514Z,2.06
2022-09-14T07:02:05.220Z,1.51
2022-09-14T07:03:04.849Z,1.49
2022-09-14T07:04:05.327Z,1.98
2022-09-14T07:05:05.190Z,2.28
2022-09-14T07:06:04.141Z,1.63
2022-09-14T07:07:04.848Z,2.15
2022-09-14T07:08:07.963Z,2.24
2022-09-14T07:09:04.839Z,2.03
2022-09-14T07:10:05.250Z,1.78
2022-09-14T07:11:04.767Z,1.28
2022-09-14T07:12:04.546Z,2.59
2022-09-14T07:13:05.840Z,1.91
2022-09-14T07:14:04.686Z,1.78
2022-09-14T07:15:04.536Z,1.31
2022-09-14T07:16:05.509Z,2.16
2022-09-14T07:17:04.752Z,1.69
2022-09-14T07:18:04.683Z,1.69
2022-09-14T07:19:04.968Z,1.69
2022-09-14T07:20:05.621Z,1.42
2022-09-14T07:21:07.796Z,1.91
2022-09-14T07:22:05.241Z,1.5
2022-09-14T07:23:04.511Z,1.25
2022-09-14T07:24:05.384Z,1.81
2022-09-14T07:25:05.410Z,1.6
2022-09-14T07:26:04.599Z,1.63
2022-09-14T07:27:05.038Z,1.59
2022-09-14T07:28:04.906Z,1.65
2022-09-14T07:29:04.563Z,2.27
2022-09-14T07:30:05.345Z,2.15
2022-09-14T07:31:05.484Z,1.54
2022-09-14T07:32:05.107Z,1.59
2022-09-14T07:33:05.378Z,1.88
2022-09-14T07:34:04.750Z,1.43
2022-09-14T07:35:05.665Z,1.39
2022-09-14T07:36:04.113Z,1.55
2022-09-14T07:37:05.184Z,1.36
2022-09-14T07:38:04.941Z,1.28
2022-09-14T07:39:05.635Z,1.31
2022-09-14T07:40:04.747Z,1.21
2022-09-14T07:41:05.140Z,1.44
2022-09-14T07:42:04.342Z,1.36
2022-09-14T07:43:05.448Z,1.38
2022-09-14T07:44:04.027Z,1.77
2022-09-14T07:45:04.944Z,1.84
2022-09-14T07:46:04.835Z,1.34
2022-09-14T07:47:04.382Z,1.48
2022-09-14T07:48:05.051Z,1.84
2022-09-14T07:49:05.434Z,1.51
2022-09-14T07:50:05.201Z,1.74
2022-09-14T07:51:04.453Z,1.68
2022-09-14T07:52:05.143Z,1.41
2022-09-14T07:53:05.613Z,1.31
2022-09-14T07:54:04.777Z,1.25
2022-09-14T07:55:05.687Z,1.8
2022-09-14T07:56:04.505Z,1.8
2022-09-14T07:57:06.526Z,2.03
2022-09-14T07:58:04.767Z,2.03
2022-09-14T07:59:37.728Z,1.03
2022-09-14T08:00:05.351Z,1.03
2022-09-14T08:01:04.905Z,1.24
2022-09-14T08:02:05.184Z,2.35
2022-09-14T08:03:04.908Z,2.35
2022-09-14T08:04:07.648Z,1.67
2022-09-14T08:05:04.672Z,1.54
2022-09-14T08:06:04.629Z,1.38
2022-09-14T08:07:05.145Z,1.84
2022-09-14T08:08:05.047Z,1.95
2022-09-14T08:09:04.518Z,1.91
2022-09-14T08:10:05.423Z,1.69
2022-09-14T08:11:05.634Z,1.79
2022-09-14T08:12:05.054Z,1.36
2022-09-14T08:13:04.842Z,1.61
2022-09-14T08:14:04.775Z,1.9
2022-09-14T08:15:05.611Z,1.74
2022-09-14T08:16:04.865Z,1.72
2022-09-14T08:17:04.513Z,1.59
2022-09-14T08:18:04.817Z,1.63
2022-09-14T08:19:04.840Z,1.29
2022-09-14T08:20:05.452Z,1.61
2022-09-14T08:21:04.419Z,1.56
2022-09-14T08:22:04.658Z,1.12
2022-09-14T08:23:05.212Z,0.97
2022-09-14T08:24:05.543Z,2.09
2022-09-14T08:25:05.244Z,1.12
2022-09-14T08:26:05.025Z,1.11
2022-09-14T08:27:04.867Z,0.79
2022-09-14T08:28:04.979Z,2.01
2022-09-14T08:29:05.246Z,0.96
2022-09-14T08:30:05.508Z,1.16
2022-09-14T08:31:04.447Z,1.07
2022-09-14T08:32:05.459Z,1.5
2022-09-14T08:33:04.418Z,1.44
2022-09-14T08:34:05.225Z,1.79
2022-09-14T08:35:04.999Z,2.83
2022-09-14T08:36:04.863Z,0.9
2022-09-14T08:37:05.482Z,1.44
2022-09-14T08:38:05.009Z,0.95
2022-09-14T08:39:04.553Z,1.34
2022-09-14T08:40:04.763Z,1.17
2022-09-14T08:41:04.606Z,1.21
2022-09-14T08:42:05.686Z,0.91
2022-09-14T08:43:05.164Z,1.34
2022-09-14T08:44:05.210Z,1.43
2022-09-14T08:45:10.959Z,1.19
2022-09-14T08:46:05.302Z,0.96
2022-09-14T08:47:05.758Z,0.89
2022-09-14T08:48:04.716Z,1.34
2022-09-14T08:49:05.781Z,2.11
2022-09-14T08:50:05.019Z,1.2
2022-09-14T08:51:05.071Z,0.94
2022-09-14T08:52:04.762Z,1.26
2022-09-14T08:53:05.938Z,0.84
2022-09-14T08:54:05.143Z,0.72
2022-09-14T08:55:05.508Z,1.19
2022-09-14T08:56:04.732Z,0.84
2022-09-14T08:57:05.486Z,0.99
2022-09-14T08:58:04.485Z,0.78
2022-09-14T08:59:05.136Z,1.29
2022-09-14T09:00:05.711Z,1.23
2022-09-14T09:01:05.206Z,1.06
2022-09-14T09:02:04.719Z,1.46
2022-09-14T09:03:05.145Z,0.93
2022-09-14T09:04:05.197Z,0.93
2022-09-14T09:05:05.601Z,1.08
2022-09-14T09:06:04.882Z,0.64
2022-09-14T09:07:04.434Z,0.84
2022-09-14T09:08:05.519Z,0.49
2022-09-14T09:09:04.593Z,0.52
2022-09-14T09:10:04.771Z,0.38
2022-09-14T09:11:05.036Z,1.01
2022-09-14T09:12:04.959Z,1.1
2022-09-14T09:13:05.524Z,0.44
2022-09-14T09:14:05.077Z,0.44
2022-09-14T09:15:04.655Z,0.88
2022-09-14T09:16:04.747Z,0.88
2022-09-14T09:17:04.620Z,0.59
2022-09-14T09:18:04.639Z,0.59
2022-09-14T09:19:04.663Z,0.77
2022-09-14T09:20:05.563Z,0.74
2022-09-14T09:21:04.127Z,0.43
2022-09-14T09:22:04.651Z,0.58
2022-09-14T09:23:04.603Z,0.58
2022-09-14T09:24:04.600Z,0.83
2022-09-14T09:25:05.462Z,0.83
2022-09-14T09:26:04.351Z,0.62
2022-09-14T09:27:04.135Z,0.48
2022-09-14T09:28:05.186Z,0.88
2022-09-14T09:29:05.125Z,0.86
2022-09-14T09:30:05.407Z,0.56
2022-09-14T09:31:05.331Z,0.98
2022-09-14T09:32:05.723Z,0.73
2022-09-14T09:33:04.494Z,0.61
2022-09-14T09:34:05.211Z,1.09
2022-09-14T09:35:05.683Z,0.74
2022-09-14T09:36:05.025Z,0.54
2022-09-14T09:37:05.377Z,0.74
2022-09-14T09:38:05.551Z,0.67
2022-09-14T09:39:07.515Z,0.7
2022-09-14T09:40:05.749Z,0.46
2022-09-14T09:41:04.878Z,0.67
2022-09-14T09:42:05.002Z,0.86
2022-09-14T09:43:05.608Z,1.69
2022-09-14T09:44:05.157Z,0.75
2022-09-14T09:45:06.376Z,0.94
2022-09-14T09:46:04.884Z,0.93
2022-09-14T09:47:04.434Z,0.89
2022-09-14T09:48:05.431Z,0.74
2022-09-14T09:49:04.967Z,0.74
2022-09-14T09:50:04.514Z,0.71
2022-09-14T09:51:04.522Z,0.49
2022-09-14T09:52:04.711Z,0.74
2022-09-14T09:53:08.759Z,0.62
2022-09-14T09:54:04.790Z,0.96
2022-09-14T09:55:04.837Z,0.97
2022-09-14T09:56:04.702Z,1.08
2022-09-14T09:57:04.686Z,0.83
2022-09-14T09:58:05.315Z,0.73
2022-09-14T09:59:04.697Z,0.81
2022-09-14T10:00:05.627Z,0.96
2022-09-14T10:01:07.780Z,0.69
2022-09-14T10:02:05.413Z,0.88
2022-09-14T10:03:04.612Z,1.24
2022-09-14T10:04:04.573Z,0.63
2022-09-14T10:05:04.536Z,1.05
2022-09-14T10:06:05.641Z,0.69
2022-09-14T10:07:04.650Z,1.02
2022-09-14T10:08:08.161Z,0.78
2022-09-14T10:09:04.796Z,0.57
2022-09-14T10:10:04.833Z,0.52
2022-09-14T10:11:04.708Z,1.47
2022-09-14T10:12:04.574Z,0.66
2022-09-14T10:13:04.610Z,0.75
2022-09-14T10:14:04.909Z,0.56
2022-09-14T10:15:04.617Z,0.54
2022-09-14T10:16:05.004Z,0.65
2022-09-14T10:17:04.530Z,0.72
2022-09-14T10:18:05.112Z,0.74
2022-09-14T10:19:04.685Z,1.15
2022-09-14T10:20:05.443Z,1.48
2022-09-14T10:21:05.155Z,1.05
2022-09-14T10:22:04.351Z,0.68
2022-09-14T10:23:04.791Z,0.79
2022-09-14T10:24:05.242Z,1.28
2022-09-14T10:25:05.013Z,0.54
2022-09-14T10:26:04.749Z,0.48
2022-09-14T10:27:05.298Z,0.56
2022-09-14T10:28:04.876Z,0.51
2022-09-14T10:29:05.022Z,0.55
2022-09-14T10:30:05.798Z,0.59
2022-09-14T10:31:05.344Z,0.9
2022-09-14T10:32:05.492Z,1.19
2022-09-14T10:33:04.479Z,0.36
2022-09-14T10:34:05.180Z,0.95
2022-09-14T10:35:05.693Z,0.74
2022-09-14T10:36:05.118Z,0.75
2022-09-14T10:37:04.667Z,0.85
2022-09-14T10:38:05.038Z,1.38
2022-09-14T10:39:05.522Z,0.99
2022-09-14T10:40:04.869Z,0.99
2022-09-14T10:41:05.075Z,0.85
2022-09-14T10:42:04.482Z,0.74
2022-09-14T10:43:04.395Z,0.74
2022-09-14T10:44:05.116Z,0.36
2022-09-14T10:45:05.270Z,0.65
2022-09-14T10:46:05.563Z,0.59
2022-09-14T10:47:07.107Z,1
2022-09-14T10:48:05.087Z,0.48
2022-09-14T10:49:04.817Z,0.94
2022-09-14T10:50:04.157Z,0.88
2022-09-14T10:51:05.717Z,0.54
2022-09-14T10:52:04.904Z,0.46
2022-09-14T10:53:05.273Z,0.78
2022-09-14T10:54:05.197Z,0.46
2022-09-14T10:55:04.339Z,0.46
2022-09-14T10:56:03.973Z,0.52
2022-09-14T10:57:04.726Z,0.72
2022-09-14T10:58:04.435Z,0.49
2022-09-14T10:59:05.196Z,0.88
2022-09-14T11:00:05.591Z,0.57
2022-09-14T11:01:04.652Z,0.71
2022-09-14T11:02:05.748Z,0.64
2022-09-14T11:03:05.251Z,0.74
2022-09-14T11:04:05.547Z,0.52
2022-09-14T11:05:04.534Z,0.89
2022-09-14T11:06:04.837Z,0.46
2022-09-14T11:07:04.834Z,0.62
2022-09-14T11:08:05.572Z,0.83
2022-09-14T11:09:04.883Z,0.66
2022-09-14T11:10:04.786Z,0.67
2022-09-14T11:11:07.089Z,0.54
2022-09-14T11:12:05.368Z,0.85
2022-09-14T11:13:05.085Z,0.36
2022-09-14T11:14:04.770Z,0.81
2022-09-14T11:15:05.703Z,0.89
2022-09-14T11:16:05.465Z,0.54
2022-09-14T11:17:04.963Z,0.82
2022-09-14T11:18:05.356Z,0.45
2022-09-14T11:19:05.053Z,0.29
2022-09-14T11:20:05.048Z,0.97
2022-09-14T11:21:04.495Z,0.65
2022-09-14T11:22:05.504Z,0.68
2022-09-14T11:23:04.923Z,0.7
2022-09-14T11:24:04.961Z,0.75
2022-09-14T11:25:05.511Z,0.71
2022-09-14T11:26:05.385Z,0.68
2022-09-14T11:27:04.675Z,0.81
2022-09-14T11:28:05.128Z,0.55
2022-09-14T11:29:05.410Z,0.58
2022-09-14T11:30:05.286Z,0.78
2022-09-14T11:31:04.718Z,0.71
2022-09-14T11:32:23.963Z,0.48
2022-09-14T11:33:05.306Z,0.56
2022-09-14T11:34:04.584Z,0.44
2022-09-14T11:35:05.391Z,0.63
2022-09-14T11:36:04.492Z,1.12
2022-09-14T11:37:05.093Z,0.64
2022-09-14T11:38:05.310Z,0.68
2022-09-14T11:39:08.967Z,0.59
2022-09-14T11:40:05.137Z,0.92
2022-09-14T11:41:04.466Z,0.7
2022-09-14T11:42:04.967Z,0.94
2022-09-14T11:43:05.031Z,0.8
2022-09-14T11:44:04.941Z,0.93
2022-09-14T11:45:05.618Z,0.63
2022-09-14T11:46:04.390Z,0.62
2022-09-14T11:47:05.419Z,0.62
2022-09-14T11:48:07.058Z,0.48
2022-09-14T11:49:04.780Z,0.71
2022-09-14T11:50:04.202Z,0.54
2022-09-14T11:51:04.921Z,0.58
2022-09-14T11:52:05.331Z,0.94
2022-09-14T11:53:04.647Z,0.48
2022-09-14T11:54:05.484Z,0.87
2022-09-14T11:55:05.576Z,0.61
2022-09-14T11:56:05.112Z,0.81
2022-09-14T11:57:04.324Z,0.61
2022-09-14T11:58:05.254Z,0.61
2022-09-14T11:59:04.614Z,0.46
2022-09-14T12:00:04.813Z,0.86
2022-09-14T12:01:05.425Z,1.21
2022-09-14T12:02:04.823Z,0.59
2022-09-14T12:03:05.207Z,0.59
2022-09-14T12:04:04.638Z,0.6
2022-09-14T12:05:04.716Z,0.6
2022-09-14T12:06:04.793Z,0.74
2022-09-14T12:07:04.725Z,0.72
2022-09-14T12:08:05.281Z,0.72
2022-09-14T12:09:04.523Z,1.59
2022-09-14T12:10:05.331Z,0.71
2022-09-14T12:11:04.483Z,0.5
2022-09-14T12:12:05.239Z,0.5
2022-09-14T12:13:05.082Z,0.63
2022-09-14T12:14:04.985Z,0.63
2022-09-14T12:15:05.043Z,0.68
2022-09-14T12:16:05.373Z,0.64
2022-09-14T12:17:40.872Z,0.95
2022-09-14T12:18:05.079Z,0.8
2022-09-14T12:19:04.601Z,0.46
2022-09-14T12:20:05.314Z,0.52
2022-09-14T12:21:04.609Z,0.75
2022-09-14T12:22:05.266Z,0.68
2022-09-14T12:23:05.101Z,0.65
2022-09-14T12:24:05.479Z,1.29
2022-09-14T12:25:05.382Z,1.02
2022-09-14T12:26:04.608Z,0.54
2022-09-14T12:27:04.710Z,1.08
2022-09-14T12:28:05.145Z,0.48
2022-09-14T12:29:05.176Z,0.65
2022-09-14T12:30:05.726Z,0.96
2022-09-14T12:31:04.895Z,0.48
2022-09-14T12:32:04.868Z,0.78
2022-09-14T12:33:05.399Z,0.83
2022-09-14T12:34:04.973Z,0.78
2022-09-14T12:35:05.010Z,0.56
2022-09-14T12:36:05.101Z,0.52
2022-09-14T12:37:08.719Z,0.62
2022-09-14T12:38:04.561Z,0.65
2022-09-14T12:39:05.013Z,0.68
2022-09-14T12:40:05.932Z,0.72
2022-09-14T12:41:05.187Z,1.15
2022-09-14T12:42:04.385Z,0.79
2022-09-14T12:43:05.232Z,0.67
2022-09-14T12:44:05.666Z,0.71
2022-09-14T12:45:05.536Z,0.88
2022-09-14T12:46:05.637Z,0.54
2022-09-14T12:47:04.328Z,0.92
2022-09-14T12:48:04.134Z,0.81
2022-09-14T12:50:00.162Z,0.65
2022-09-14T12:50:05.285Z,0.6
2022-09-14T12:51:04.247Z,0.43
2022-09-14T12:52:05.500Z,0.75
2022-09-14T12:53:04.423Z,0.65
2022-09-14T12:54:05.311Z,0.68
2022-09-14T12:55:04.951Z,0.44
2022-09-14T12:56:04.973Z,0.56
2022-09-14T12:57:03.919Z,0.66
2022-09-14T12:58:05.318Z,2.28
2022-09-14T12:59:04.878Z,0.41
2022-09-14T13:00:05.367Z,0.59
2022-09-14T13:01:05.475Z,0.9
2022-09-14T13:02:05.686Z,0.51
2022-09-14T13:03:05.185Z,0.38
2022-09-14T13:04:05.667Z,0.72
2022-09-14T13:05:04.870Z,1.69
2022-09-14T13:06:04.922Z,0.68
2022-09-14T13:07:05.007Z,0.71
2022-09-14T13:08:04.977Z,0.74
2022-09-14T13:09:09.837Z,0.76
2022-09-14T13:10:05.143Z,0.58
2022-09-14T13:11:05.323Z,1.54
2022-09-14T13:12:04.515Z,0.42
2022-09-14T13:13:05.289Z,1.16
2022-09-14T13:14:05.311Z,0.65
2022-09-14T13:15:04.909Z,0.59
2022-09-14T13:16:05.594Z,1.22
2022-09-14T13:17:05.096Z,0.82
2022-09-14T13:18:05.383Z,1.04
2022-09-14T13:19:04.737Z,0.74
2022-09-14T13:20:05.296Z,0.49